sensor_id;sensor_type;location;lat;lon;timestamp;temperature;humidity
22984;DHT22;11658;48.908;9.140;2023-08-20T05:01:38;21.00;99.90
22984;DHT22;11658;48.908;9.140;2023-08-20T05:04:04;21.00;99.90
22984;DHT22;11658;48.908;9.140;2023-08-20T05:06:29;21.10;99.90
22984;DHT22;11658;48.908;9.140;2023-08-20T05:08:55;21.10;99.90
22984;DHT22;11658;48.908;9.140;2023-08-20T05:11:20;21.10;99.90
22984;DHT22;11658;48.908;9.140;2023-08-20T05:13:49;21.40;99.90
22984;DHT22;11658;48.908;9.140;2023-08-20T05:16:15;22.00;99.90
22984;DHT22;11658;48.908;9.140;2023-08-20T05:18:40;22.70;99.90
22984;DHT22;11658;48.908;9.140;2023-08-20T05:21:06;22.90;99.90
22984;DHT22;11658;48.908;9.140;2023-08-20T05:23:31;22.80;99.90
22984;DHT22;11658;48.908;9.140;2023-08-20T05:25:57;22.80;99.90
22984;DHT22;11658;48.908;9.140;2023-08-20T05:28:22;22.80;99.90
22984;DHT22;11658;48.908;9.140;2023-08-20T05:30:55;22.80;99.90
22984;DHT22;11658;48.908;9.140;2023-08-20T05:33:21;22.80;99.90
22984;DHT22;11658;48.908;9.140;2023-08-20T05:35:48;22.80;99.90
22984;DHT22;11658;48.908;9.140;2023-08-20T05:38:13;22.80;99.90
22984;DHT22;11658;48.908;9.140;2023-08-20T05:40:39;22.80;99.90
22984;DHT22;11658;48.908;9.140;2023-08-20T05:43:04;22.80;99.90
22984;DHT22;11658;48.908;9.140;2023-08-20T05:45:30;22.60;99.90
22984;DHT22;11658;48.908;9.140;2023-08-20T05:47:55;22.50;99.90
22984;DHT22;11658;48.908;9.140;2023-08-20T05:50:21;22.40;99.90
22984;DHT22;11658;48.908;9.140;2023-08-20T05:52:47;22.50;99.90
22984;DHT22;11658;48.908;9.140;2023-08-20T05:55:14;22.60;99.90
22984;DHT22;11658;48.908;9.140;2023-08-20T05:57:39;22.90;99.90
22984;DHT22;11658;48.908;9.140;2023-08-20T06:00:06;23.40;99.90
22984;DHT22;11658;48.908;9.140;2023-08-20T06:02:32;24.80;99.90
22984;DHT22;11658;48.908;9.140;2023-08-20T06:04:58;25.40;99.90
22984;DHT22;11658;48.908;9.140;2023-08-20T06:07:23;25.40;99.90
22984;DHT22;11658;48.908;9.140;2023-08-20T06:09:49;25.40;99.90
22984;DHT22;11658;48.908;9.140;2023-08-20T06:12:16;25.20;99.90
22984;DHT22;11658;48.908;9.140;2023-08-20T06:14:41;25.20;99.90
22984;DHT22;11658;48.908;9.140;2023-08-20T06:17:07;25.20;99.90
22984;DHT22;11658;48.908;9.140;2023-08-20T06:19:33;25.10;99.90
22984;DHT22;11658;48.908;9.140;2023-08-20T06:21:59;24.70;99.90
22984;DHT22;11658;48.908;9.140;2023-08-20T06:24:25;24.40;99.90
22984;DHT22;11658;48.908;9.140;2023-08-20T06:26:51;24.50;99.90
22984;DHT22;11658;48.908;9.140;2023-08-20T06:29:17;24.80;99.90
22984;DHT22;11658;48.908;9.140;2023-08-20T06:31:43;25.00;99.90
22984;DHT22;11658;48.908;9.140;2023-08-20T06:34:08;25.10;99.90
22984;DHT22;11658;48.908;9.140;2023-08-20T06:36:35;25.10;99.90
22984;DHT22;11658;48.908;9.140;2023-08-20T06:39:01;25.00;99.90
22984;DHT22;11658;48.908;9.140;2023-08-20T06:41:26;25.10;99.90
22984;DHT22;11658;48.908;9.140;2023-08-20T06:43:52;25.20;99.90
22984;DHT22;11658;48.908;9.140;2023-08-20T06:46:17;25.40;99.90
22984;DHT22;11658;48.908;9.140;2023-08-20T06:48:43;25.30;99.90
22984;DHT22;11658;48.908;9.140;2023-08-20T06:51:18;25.20;99.90
22984;DHT22;11658;48.908;9.140;2023-08-20T06:53:44;25.20;99.90
22984;DHT22;11658;48.908;9.140;2023-08-20T06:56:10;25.40;99.90
22984;DHT22;11658;48.908;9.140;2023-08-20T06:58:37;25.60;99.90
22984;DHT22;11658;48.908;9.140;2023-08-20T07:01:03;25.40;99.90
22984;DHT22;11658;48.908;9.140;2023-08-20T07:03:37;25.20;99.90
22984;DHT22;11658;48.908;9.140;2023-08-20T07:06:02;24.80;99.90
22984;DHT22;11658;48.908;9.140;2023-08-20T07:08:28;24.80;99.90
22984;DHT22;11658;48.908;9.140;2023-08-20T07:10:54;24.50;99.90
22984;DHT22;11658;48.908;9.140;2023-08-20T07:13:19;24.50;99.90
22984;DHT22;11658;48.908;9.140;2023-08-20T07:15:45;24.70;99.90
22984;DHT22;11658;48.908;9.140;2023-08-20T07:18:10;24.90;99.90
22984;DHT22;11658;48.908;9.140;2023-08-20T07:20:39;25.10;99.90
22984;DHT22;11658;48.908;9.140;2023-08-20T07:23:04;25.30;99.90
22984;DHT22;11658;48.908;9.140;2023-08-20T07:25:30;25.50;99.90
22984;DHT22;11658;48.908;9.140;2023-08-20T07:27:56;25.20;99.90
22984;DHT22;11658;48.908;9.140;2023-08-20T07:30:25;25.10;99.90
22984;DHT22;11658;48.908;9.140;2023-08-20T07:32:51;24.70;99.90
22984;DHT22;11658;48.908;9.140;2023-08-20T07:35:16;24.70;99.90
22984;DHT22;11658;48.908;9.140;2023-08-20T07:37:42;24.80;99.90
22984;DHT22;11658;48.908;9.140;2023-08-20T07:40:08;24.80;99.90
22984;DHT22;11658;48.908;9.140;2023-08-20T07:42:34;24.90;99.90
22984;DHT22;11658;48.908;9.140;2023-08-20T07:45:00;24.60;99.90
22984;DHT22;11658;48.908;9.140;2023-08-20T07:47:26;24.70;99.90
22984;DHT22;11658;48.908;9.140;2023-08-20T07:49:54;24.80;99.90
22984;DHT22;11658;48.908;9.140;2023-08-20T07:52:20;24.80;99.90
22984;DHT22;11658;48.908;9.140;2023-08-20T07:54:45;24.90;99.90
22984;DHT22;11658;48.908;9.140;2023-08-20T07:57:11;24.90;99.90
22984;DHT22;11658;48.908;9.140;2023-08-20T07:59:37;25.00;99.90
22984;DHT22;11658;48.908;9.140;2023-08-20T08:02:03;25.10;99.90
22984;DHT22;11658;48.908;9.140;2023-08-20T08:04:29;25.40;99.90
22984;DHT22;11658;48.908;9.140;2023-08-20T08:06:55;25.60;99.90
22984;DHT22;11658;48.908;9.140;2023-08-20T08:09:27;25.80;99.90
22984;DHT22;11658;48.908;9.140;2023-08-20T08:11:53;25.60;99.90
22984;DHT22;11658;48.908;9.140;2023-08-20T08:14:19;25.60;99.90
22984;DHT22;11658;48.908;9.140;2023-08-20T08:16:45;25.70;99.90
22984;DHT22;11658;48.908;9.140;2023-08-20T08:19:12;25.70;99.90
22984;DHT22;11658;48.908;9.140;2023-08-20T08:21:37;25.60;99.90
22984;DHT22;11658;48.908;9.140;2023-08-20T08:24:03;25.70;99.90
22984;DHT22;11658;48.908;9.140;2023-08-20T08:26:30;25.90;99.90
22984;DHT22;11658;48.908;9.140;2023-08-20T08:28:56;26.00;99.90
22984;DHT22;11658;48.908;9.140;2023-08-20T08:31:21;26.10;99.90
22984;DHT22;11658;48.908;9.140;2023-08-20T08:33:47;26.10;99.90
22984;DHT22;11658;48.908;9.140;2023-08-20T08:36:12;26.10;99.90
22984;DHT22;11658;48.908;9.140;2023-08-20T08:38:40;26.30;99.90
22984;DHT22;11658;48.908;9.140;2023-08-20T08:41:10;26.30;99.90
22984;DHT22;11658;48.908;9.140;2023-08-20T08:43:37;26.50;99.90
22984;DHT22;11658;48.908;9.140;2023-08-20T08:46:08;26.70;99.90
22984;DHT22;11658;48.908;9.140;2023-08-20T08:48:35;26.70;99.90
22984;DHT22;11658;48.908;9.140;2023-08-20T08:51:02;26.70;99.90
22984;DHT22;11658;48.908;9.140;2023-08-20T08:53:27;26.60;99.90
22984;DHT22;11658;48.908;9.140;2023-08-20T08:55:54;26.60;99.90
22984;DHT22;11658;48.908;9.140;2023-08-20T08:58:19;26.60;99.90
22984;DHT22;11658;48.908;9.140;2023-08-20T09:00:45;26.70;99.90
22984;DHT22;11658;48.908;9.140;2023-08-20T09:03:11;26.70;99.90
22984;DHT22;11658;48.908;9.140;2023-08-20T09:05:47;26.80;99.90
22984;DHT22;11658;48.908;9.140;2023-08-20T09:08:26;27.00;99.90
22984;DHT22;11658;48.908;9.140;2023-08-20T09:10:53;26.90;99.90
22984;DHT22;11658;48.908;9.140;2023-08-20T09:15:53;27.00;99.90
22984;DHT22;11658;48.908;9.140;2023-08-20T09:18:19;27.10;99.90
22984;DHT22;11658;48.908;9.140;2023-08-20T09:20:44;27.30;99.90
22984;DHT22;11658;48.908;9.140;2023-08-20T09:23:12;27.60;99.90
22984;DHT22;11658;48.908;9.140;2023-08-20T09:25:42;27.90;99.90
22984;DHT22;11658;48.908;9.140;2023-08-20T09:28:08;28.10;99.90
22984;DHT22;11658;48.908;9.140;2023-08-20T09:30:34;28.10;99.90
22984;DHT22;11658;48.908;9.140;2023-08-20T09:33:10;28.20;99.90
22984;DHT22;11658;48.908;9.140;2023-08-20T09:35:35;28.00;99.90
22984;DHT22;11658;48.908;9.140;2023-08-20T09:38:03;28.00;99.90
22984;DHT22;11658;48.908;9.140;2023-08-20T09:40:29;28.10;99.90
22984;DHT22;11658;48.908;9.140;2023-08-20T09:42:56;28.30;99.90
22984;DHT22;11658;48.908;9.140;2023-08-20T09:45:25;28.40;99.90
22984;DHT22;11658;48.908;9.140;2023-08-20T09:47:55;28.30;99.90
22984;DHT22;11658;48.908;9.140;2023-08-20T09:50:22;28.50;99.90
22984;DHT22;11658;48.908;9.140;2023-08-20T09:53:03;28.80;99.90
22984;DHT22;11658;48.908;9.140;2023-08-20T09:55:33;28.90;99.90
22984;DHT22;11658;48.908;9.140;2023-08-20T09:58:01;29.00;99.90
22984;DHT22;11658;48.908;9.140;2023-08-20T10:00:28;29.00;99.90
22984;DHT22;11658;48.908;9.140;2023-08-20T10:02:54;28.70;99.90
22984;DHT22;11658;48.908;9.140;2023-08-20T10:05:20;28.60;99.90
22984;DHT22;11658;48.908;9.140;2023-08-20T10:07:49;28.70;99.90
22984;DHT22;11658;48.908;9.140;2023-08-20T10:10:15;28.70;99.90
22984;DHT22;11658;48.908;9.140;2023-08-20T10:12:43;28.70;99.90
22984;DHT22;11658;48.908;9.140;2023-08-20T10:15:12;28.90;99.90
22984;DHT22;11658;48.908;9.140;2023-08-20T10:17:40;28.90;99.90
22984;DHT22;11658;48.908;9.140;2023-08-20T10:20:06;29.20;99.90
22984;DHT22;11658;48.908;9.140;2023-08-20T10:22:40;29.40;99.90
22984;DHT22;11658;48.908;9.140;2023-08-20T10:25:10;29.20;99.90
22984;DHT22;11658;48.908;9.140;2023-08-20T10:27:41;29.10;99.90
22984;DHT22;11658;48.908;9.140;2023-08-20T10:30:17;29.00;99.90
22984;DHT22;11658;48.908;9.140;2023-08-20T10:35:09;28.90;99.90
22984;DHT22;11658;48.908;9.140;2023-08-20T10:38:00;29.00;99.90
22984;DHT22;11658;48.908;9.140;2023-08-20T10:46:17;29.40;99.90
22984;DHT22;11658;48.908;9.140;2023-08-20T10:48:47;29.60;99.90
22984;DHT22;11658;48.908;9.140;2023-08-20T10:51:27;29.80;99.90
22984;DHT22;11658;48.908;9.140;2023-08-20T10:56:40;29.90;99.90
22984;DHT22;11658;48.908;9.140;2023-08-20T11:01:52;30.30;99.90
22984;DHT22;11658;48.908;9.140;2023-08-20T11:04:19;30.10;99.90
22984;DHT22;11658;48.908;9.140;2023-08-20T11:06:46;29.90;99.90
22984;DHT22;11658;48.908;9.140;2023-08-20T11:09:12;30.00;99.90
22984;DHT22;11658;48.908;9.140;2023-08-20T11:11:39;30.00;99.90
22984;DHT22;11658;48.908;9.140;2023-08-20T11:14:12;29.90;99.90
22984;DHT22;11658;48.908;9.140;2023-08-20T11:16:44;29.90;99.90
22984;DHT22;11658;48.908;9.140;2023-08-20T11:19:10;30.00;99.90
22984;DHT22;11658;48.908;9.140;2023-08-20T11:21:38;30.10;99.90
22984;DHT22;11658;48.908;9.140;2023-08-20T11:24:04;30.40;99.90
22984;DHT22;11658;48.908;9.140;2023-08-20T11:26:30;30.40;99.90
22984;DHT22;11658;48.908;9.140;2023-08-20T11:28:56;30.40;99.90
22984;DHT22;11658;48.908;9.140;2023-08-20T11:31:22;30.30;99.90
22984;DHT22;11658;48.908;9.140;2023-08-20T11:33:49;30.20;99.90
22984;DHT22;11658;48.908;9.140;2023-08-20T11:36:19;30.10;99.90
22984;DHT22;11658;48.908;9.140;2023-08-20T11:38:52;30.20;99.90
22984;DHT22;11658;48.908;9.140;2023-08-20T11:41:19;30.30;99.90
22984;DHT22;11658;48.908;9.140;2023-08-20T11:43:46;30.40;99.90
22984;DHT22;11658;48.908;9.140;2023-08-20T11:46:17;30.50;99.90
22984;DHT22;11658;48.908;9.140;2023-08-20T11:51:28;30.60;99.90
22984;DHT22;11658;48.908;9.140;2023-08-20T11:53:55;30.70;99.90
22984;DHT22;11658;48.908;9.140;2023-08-20T11:56:21;31.00;99.90
22984;DHT22;11658;48.908;9.140;2023-08-20T11:58:51;30.90;99.90
22984;DHT22;11658;48.908;9.140;2023-08-20T12:01:18;30.80;99.90
22984;DHT22;11658;48.908;9.140;2023-08-20T12:03:44;30.60;99.90
22984;DHT22;11658;48.908;9.140;2023-08-20T12:06:20;30.60;99.90
22984;DHT22;11658;48.908;9.140;2023-08-20T12:08:46;30.80;99.90
22984;DHT22;11658;48.908;9.140;2023-08-20T12:11:12;31.00;99.90
22984;DHT22;11658;48.908;9.140;2023-08-20T12:13:38;31.10;99.90
22984;DHT22;11658;48.908;9.140;2023-08-20T12:16:04;31.00;99.90
22984;DHT22;11658;48.908;9.140;2023-08-20T12:18:30;30.90;99.90
22984;DHT22;11658;48.908;9.140;2023-08-20T12:20:55;31.00;99.90
22984;DHT22;11658;48.908;9.140;2023-08-20T12:23:21;30.90;99.90
22984;DHT22;11658;48.908;9.140;2023-08-20T12:25:50;30.80;99.90
22984;DHT22;11658;48.908;9.140;2023-08-20T12:28:16;31.00;99.90
22984;DHT22;11658;48.908;9.140;2023-08-20T12:30:43;31.10;99.90
22984;DHT22;11658;48.908;9.140;2023-08-20T12:33:08;31.30;99.90
22984;DHT22;11658;48.908;9.140;2023-08-20T12:35:34;31.30;99.90
22984;DHT22;11658;48.908;9.140;2023-08-20T12:38:00;31.60;99.90
22984;DHT22;11658;48.908;9.140;2023-08-20T12:40:26;31.60;99.90
22984;DHT22;11658;48.908;9.140;2023-08-20T12:42:51;31.50;99.90
22984;DHT22;11658;48.908;9.140;2023-08-20T12:45:17;31.40;99.90
22984;DHT22;11658;48.908;9.140;2023-08-20T12:47:42;31.20;99.90
22984;DHT22;11658;48.908;9.140;2023-08-20T12:50:08;31.20;99.90
22984;DHT22;11658;48.908;9.140;2023-08-20T12:52:34;31.20;99.90
22984;DHT22;11658;48.908;9.140;2023-08-20T12:55:00;31.20;99.90
22984;DHT22;11658;48.908;9.140;2023-08-20T12:57:25;31.30;99.90
22984;DHT22;11658;48.908;9.140;2023-08-20T12:59:51;31.30;99.90
22984;DHT22;11658;48.908;9.140;2023-08-20T13:02:18;31.30;99.90
22984;DHT22;11658;48.908;9.140;2023-08-20T13:04:43;31.30;99.90
22984;DHT22;11658;48.908;9.140;2023-08-20T13:07:11;31.30;99.90
22984;DHT22;11658;48.908;9.140;2023-08-20T13:09:37;31.30;99.90
22984;DHT22;11658;48.908;9.140;2023-08-20T13:12:03;31.50;99.90
22984;DHT22;11658;48.908;9.140;2023-08-20T13:14:31;31.60;99.90
22984;DHT22;11658;48.908;9.140;2023-08-20T13:16:57;31.30;99.90
22984;DHT22;11658;48.908;9.140;2023-08-20T13:19:22;31.40;99.90
22984;DHT22;11658;48.908;9.140;2023-08-20T13:21:48;31.60;99.90
22984;DHT22;11658;48.908;9.140;2023-08-20T13:24:13;31.80;99.90
22984;DHT22;11658;48.908;9.140;2023-08-20T13:26:39;31.70;99.90
22984;DHT22;11658;48.908;9.140;2023-08-20T13:29:05;31.80;99.90
22984;DHT22;11658;48.908;9.140;2023-08-20T13:31:30;31.90;99.90
22984;DHT22;11658;48.908;9.140;2023-08-20T13:33:56;31.90;99.90
22984;DHT22;11658;48.908;9.140;2023-08-20T13:36:21;31.60;99.90
22984;DHT22;11658;48.908;9.140;2023-08-20T13:38:47;31.50;99.90
22984;DHT22;11658;48.908;9.140;2023-08-20T13:41:12;31.50;99.90
22984;DHT22;11658;48.908;9.140;2023-08-20T13:43:38;31.50;99.90
22984;DHT22;11658;48.908;9.140;2023-08-20T13:46:04;31.50;99.90
22984;DHT22;11658;48.908;9.140;2023-08-20T13:48:29;31.70;99.90
22984;DHT22;11658;48.908;9.140;2023-08-20T13:50:55;31.80;99.90
22984;DHT22;11658;48.908;9.140;2023-08-20T13:53:20;31.80;99.90
22984;DHT22;11658;48.908;9.140;2023-08-20T13:55:46;31.80;99.90
22984;DHT22;11658;48.908;9.140;2023-08-20T13:58:12;31.80;99.90
22984;DHT22;11658;48.908;9.140;2023-08-20T14:00:37;31.90;99.90
22984;DHT22;11658;48.908;9.140;2023-08-20T14:03:04;31.90;99.90
22984;DHT22;11658;48.908;9.140;2023-08-20T14:05:29;31.90;99.90
22984;DHT22;11658;48.908;9.140;2023-08-20T14:07:55;32.00;99.90
22984;DHT22;11658;48.908;9.140;2023-08-20T14:10:21;32.20;99.90
22984;DHT22;11658;48.908;9.140;2023-08-20T14:12:47;32.20;99.90
22984;DHT22;11658;48.908;9.140;2023-08-20T14:15:13;32.20;99.90
22984;DHT22;11658;48.908;9.140;2023-08-20T14:17:39;32.10;99.90
22984;DHT22;11658;48.908;9.140;2023-08-20T14:20:05;31.90;99.90
22984;DHT22;11658;48.908;9.140;2023-08-20T14:22:32;31.60;99.90
22984;DHT22;11658;48.908;9.140;2023-08-20T14:24:57;31.70;99.90
22984;DHT22;11658;48.908;9.140;2023-08-20T14:27:23;31.90;99.90
22984;DHT22;11658;48.908;9.140;2023-08-20T14:29:51;32.10;99.90
22984;DHT22;11658;48.908;9.140;2023-08-20T14:32:17;32.30;99.90
22984;DHT22;11658;48.908;9.140;2023-08-20T14:34:43;32.20;99.90
22984;DHT22;11658;48.908;9.140;2023-08-20T14:37:08;32.10;99.90
22984;DHT22;11658;48.908;9.140;2023-08-20T14:39:35;32.00;99.90
22984;DHT22;11658;48.908;9.140;2023-08-20T14:42:01;31.90;99.90
22984;DHT22;11658;48.908;9.140;2023-08-20T14:44:27;32.10;99.90
22984;DHT22;11658;48.908;9.140;2023-08-20T14:46:53;32.20;99.90
22984;DHT22;11658;48.908;9.140;2023-08-20T14:49:18;32.10;99.90
22984;DHT22;11658;48.908;9.140;2023-08-20T14:51:44;32.10;99.90
22984;DHT22;11658;48.908;9.140;2023-08-20T14:54:10;32.20;99.90
22984;DHT22;11658;48.908;9.140;2023-08-20T14:56:35;32.10;99.90
22984;DHT22;11658;48.908;9.140;2023-08-20T14:59:01;32.10;99.90
22984;DHT22;11658;48.908;9.140;2023-08-20T15:01:26;31.90;99.90
22984;DHT22;11658;48.908;9.140;2023-08-20T15:03:52;32.00;99.90
22984;DHT22;11658;48.908;9.140;2023-08-20T15:06:17;32.00;99.90
22984;DHT22;11658;48.908;9.140;2023-08-20T15:08:46;31.80;99.90
22984;DHT22;11658;48.908;9.140;2023-08-20T15:11:12;31.80;99.90
22984;DHT22;11658;48.908;9.140;2023-08-20T15:13:38;31.90;99.90
22984;DHT22;11658;48.908;9.140;2023-08-20T15:16:03;31.90;99.90
22984;DHT22;11658;48.908;9.140;2023-08-20T15:18:29;32.00;99.90
22984;DHT22;11658;48.908;9.140;2023-08-20T15:20:56;31.90;99.90
22984;DHT22;11658;48.908;9.140;2023-08-20T15:23:23;32.00;99.90
22984;DHT22;11658;48.908;9.140;2023-08-20T15:25:50;31.80;99.90
22984;DHT22;11658;48.908;9.140;2023-08-20T15:28:16;32.00;99.90
22984;DHT22;11658;48.908;9.140;2023-08-20T15:30:42;32.20;99.90
22984;DHT22;11658;48.908;9.140;2023-08-20T15:33:07;32.30;99.90
22984;DHT22;11658;48.908;9.140;2023-08-20T15:35:33;32.30;99.90
22984;DHT22;11658;48.908;9.140;2023-08-20T15:37:58;32.20;99.90
22984;DHT22;11658;48.908;9.140;2023-08-20T15:40:24;32.20;99.90
22984;DHT22;11658;48.908;9.140;2023-08-20T15:42:49;32.30;99.90
22984;DHT22;11658;48.908;9.140;2023-08-20T15:45:15;32.30;99.90
22984;DHT22;11658;48.908;9.140;2023-08-20T15:47:41;32.20;99.90
22984;DHT22;11658;48.908;9.140;2023-08-20T15:50:07;32.40;99.90
22984;DHT22;11658;48.908;9.140;2023-08-20T15:52:32;32.60;99.90
22984;DHT22;11658;48.908;9.140;2023-08-20T15:54:58;32.70;99.90
22984;DHT22;11658;48.908;9.140;2023-08-20T15:57:24;32.60;99.90
22984;DHT22;11658;48.908;9.140;2023-08-20T15:59:50;32.40;99.90
22984;DHT22;11658;48.908;9.140;2023-08-20T16:02:15;32.30;99.90
22984;DHT22;11658;48.908;9.140;2023-08-20T16:04:42;32.20;99.90
22984;DHT22;11658;48.908;9.140;2023-08-20T16:07:07;32.30;99.90
22984;DHT22;11658;48.908;9.140;2023-08-20T16:09:34;32.20;99.90
22984;DHT22;11658;48.908;9.140;2023-08-20T16:12:00;31.90;99.90
22984;DHT22;11658;48.908;9.140;2023-08-20T16:14:26;31.90;99.90
22984;DHT22;11658;48.908;9.140;2023-08-20T16:16:51;31.80;99.90
22984;DHT22;11658;48.908;9.140;2023-08-20T16:19:17;31.90;99.90
22984;DHT22;11658;48.908;9.140;2023-08-20T16:21:43;32.00;99.90
22984;DHT22;11658;48.908;9.140;2023-08-20T16:24:08;32.10;99.90
22984;DHT22;11658;48.908;9.140;2023-08-20T16:26:37;32.40;99.90
22984;DHT22;11658;48.908;9.140;2023-08-20T16:29:03;33.30;99.90
22984;DHT22;11658;48.908;9.140;2023-08-20T16:31:28;34.10;99.90
22984;DHT22;11658;48.908;9.140;2023-08-20T16:33:54;35.10;99.90
22984;DHT22;11658;48.908;9.140;2023-08-20T16:36:19;35.30;99.90
22984;DHT22;11658;48.908;9.140;2023-08-20T16:38:45;35.10;99.90
22984;DHT22;11658;48.908;9.140;2023-08-20T16:41:10;35.00;99.90
22984;DHT22;11658;48.908;9.140;2023-08-20T16:43:36;35.60;99.90
22984;DHT22;11658;48.908;9.140;2023-08-20T16:46:01;36.10;99.90
22984;DHT22;11658;48.908;9.140;2023-08-20T16:48:28;35.90;99.90
22984;DHT22;11658;48.908;9.140;2023-08-20T16:50:58;35.30;99.90
22984;DHT22;11658;48.908;9.140;2023-08-20T16:53:24;34.60;99.90
22984;DHT22;11658;48.908;9.140;2023-08-20T16:55:54;34.30;99.90
22984;DHT22;11658;48.908;9.140;2023-08-20T16:58:20;34.40;99.90
22984;DHT22;11658;48.908;9.140;2023-08-20T17:00:48;35.30;99.90
22984;DHT22;11658;48.908;9.140;2023-08-20T17:03:15;36.50;99.90
22984;DHT22;11658;48.908;9.140;2023-08-20T17:05:41;37.00;99.90
22984;DHT22;11658;48.908;9.140;2023-08-20T17:08:08;37.30;99.90
22984;DHT22;11658;48.908;9.140;2023-08-20T17:10:34;37.90;99.90
22984;DHT22;11658;48.908;9.140;2023-08-20T17:13:00;38.60;99.90
22984;DHT22;11658;48.908;9.140;2023-08-20T17:15:26;38.90;99.90
22984;DHT22;11658;48.908;9.140;2023-08-20T17:17:52;39.10;99.90
22984;DHT22;11658;48.908;9.140;2023-08-20T17:20:18;39.40;99.90
22984;DHT22;11658;48.908;9.140;2023-08-20T17:22:43;39.80;99.90
22984;DHT22;11658;48.908;9.140;2023-08-20T17:25:09;39.80;99.90
22984;DHT22;11658;48.908;9.140;2023-08-20T17:27:36;39.80;99.90
22984;DHT22;11658;48.908;9.140;2023-08-20T17:30:04;39.40;99.90
22984;DHT22;11658;48.908;9.140;2023-08-20T17:32:39;39.10;99.90
22984;DHT22;11658;48.908;9.140;2023-08-20T17:35:05;38.60;99.90
22984;DHT22;11658;48.908;9.140;2023-08-20T17:37:34;38.30;99.90
22984;DHT22;11658;48.908;9.140;2023-08-20T17:39:59;38.00;99.90
22984;DHT22;11658;48.908;9.140;2023-08-20T17:42:25;37.60;99.90
22984;DHT22;11658;48.908;9.140;2023-08-20T17:44:51;36.60;99.90
22984;DHT22;11658;48.908;9.140;2023-08-20T17:47:16;35.70;99.90
22984;DHT22;11658;48.908;9.140;2023-08-20T17:49:42;34.90;99.90
22984;DHT22;11658;48.908;9.140;2023-08-20T17:52:07;34.10;99.90
22984;DHT22;11658;48.908;9.140;2023-08-20T17:54:33;33.40;99.90
22984;DHT22;11658;48.908;9.140;2023-08-20T17:56:58;33.00;99.90
22984;DHT22;11658;48.908;9.140;2023-08-20T17:59:25;32.50;99.90
22984;DHT22;11658;48.908;9.140;2023-08-20T18:01:50;32.10;99.90
22984;DHT22;11658;48.908;9.140;2023-08-20T18:04:16;31.70;99.90
22984;DHT22;11658;48.908;9.140;2023-08-20T18:06:41;31.40;99.90
22984;DHT22;11658;48.908;9.140;2023-08-20T18:09:07;31.10;99.90
22984;DHT22;11658;48.908;9.140;2023-08-20T18:11:32;30.90;99.90
22984;DHT22;11658;48.908;9.140;2023-08-20T18:13:58;30.60;99.90
22984;DHT22;11658;48.908;9.140;2023-08-20T18:16:24;30.40;99.90
22984;DHT22;11658;48.908;9.140;2023-08-20T18:18:49;30.20;99.90
22984;DHT22;11658;48.908;9.140;2023-08-20T18:21:15;30.00;99.90
22984;DHT22;11658;48.908;9.140;2023-08-20T18:23:40;29.80;99.90
22984;DHT22;11658;48.908;9.140;2023-08-20T18:26:07;29.60;99.90
22984;DHT22;11658;48.908;9.140;2023-08-20T18:28:33;29.50;99.90
22984;DHT22;11658;48.908;9.140;2023-08-20T18:31:00;29.30;99.90
22984;DHT22;11658;48.908;9.140;2023-08-20T18:33:30;29.20;99.90
22984;DHT22;11658;48.908;9.140;2023-08-20T18:36:02;29.10;99.90
22984;DHT22;11658;48.908;9.140;2023-08-20T18:41:02;28.90;99.90
22984;DHT22;11658;48.908;9.140;2023-08-20T18:43:28;28.70;99.90
22984;DHT22;11658;48.908;9.140;2023-08-20T18:45:54;28.60;99.90
22984;DHT22;11658;48.908;9.140;2023-08-20T18:48:20;28.50;99.90
22984;DHT22;11658;48.908;9.140;2023-08-20T18:50:46;28.40;99.90
22984;DHT22;11658;48.908;9.140;2023-08-20T18:53:12;28.20;99.90
22984;DHT22;11658;48.908;9.140;2023-08-20T18:55:37;28.20;99.90
22984;DHT22;11658;48.908;9.140;2023-08-20T18:58:04;28.00;99.90
22984;DHT22;11658;48.908;9.140;2023-08-20T19:00:29;28.00;99.90
22984;DHT22;11658;48.908;9.140;2023-08-20T19:02:56;27.90;99.90
22984;DHT22;11658;48.908;9.140;2023-08-20T19:05:21;27.80;99.90
22984;DHT22;11658;48.908;9.140;2023-08-20T19:07:47;27.80;99.90
22984;DHT22;11658;48.908;9.140;2023-08-20T19:10:14;27.70;99.90
22984;DHT22;11658;48.908;9.140;2023-08-20T19:12:40;27.60;99.90
22984;DHT22;11658;48.908;9.140;2023-08-20T19:15:06;27.60;99.90
22984;DHT22;11658;48.908;9.140;2023-08-20T19:17:31;27.50;99.90
22984;DHT22;11658;48.908;9.140;2023-08-20T19:19:57;27.50;99.90
22984;DHT22;11658;48.908;9.140;2023-08-20T19:22:23;27.50;99.90
22984;DHT22;11658;48.908;9.140;2023-08-20T19:24:51;27.50;99.90
22984;DHT22;11658;48.908;9.140;2023-08-20T19:27:17;27.40;99.90
22984;DHT22;11658;48.908;9.140;2023-08-20T19:29:42;27.40;99.90
22984;DHT22;11658;48.908;9.140;2023-08-20T19:32:08;27.40;99.90
22984;DHT22;11658;48.908;9.140;2023-08-20T19:34:33;27.30;99.90
22984;DHT22;11658;48.908;9.140;2023-08-20T19:37:02;27.20;99.90
22984;DHT22;11658;48.908;9.140;2023-08-20T19:39:28;27.20;99.90
22984;DHT22;11658;48.908;9.140;2023-08-20T19:41:54;27.10;99.90
22984;DHT22;11658;48.908;9.140;2023-08-20T19:44:20;27.10;99.90
22984;DHT22;11658;48.908;9.140;2023-08-20T19:46:45;27.00;99.90
22984;DHT22;11658;48.908;9.140;2023-08-20T19:49:11;27.00;99.90
22984;DHT22;11658;48.908;9.140;2023-08-20T19:51:37;26.90;99.90
22984;DHT22;11658;48.908;9.140;2023-08-20T19:54:04;26.90;99.90
22984;DHT22;11658;48.908;9.140;2023-08-20T19:56:30;26.80;99.90
22984;DHT22;11658;48.908;9.140;2023-08-20T19:58:55;26.70;99.90
22984;DHT22;11658;48.908;9.140;2023-08-20T20:01:22;26.70;99.90
22984;DHT22;11658;48.908;9.140;2023-08-20T20:03:50;26.60;99.90
22984;DHT22;11658;48.908;9.140;2023-08-20T20:06:17;26.60;99.90
22984;DHT22;11658;48.908;9.140;2023-08-20T20:08:43;26.50;99.90
22984;DHT22;11658;48.908;9.140;2023-08-20T20:11:08;26.40;99.90
22984;DHT22;11658;48.908;9.140;2023-08-20T20:13:34;26.40;99.90
22984;DHT22;11658;48.908;9.140;2023-08-20T20:16:00;26.40;99.90
22984;DHT22;11658;48.908;9.140;2023-08-20T20:18:27;26.30;99.90
22984;DHT22;11658;48.908;9.140;2023-08-20T20:20:53;26.30;99.90
22984;DHT22;11658;48.908;9.140;2023-08-20T20:23:19;26.20;99.90
22984;DHT22;11658;48.908;9.140;2023-08-20T20:25:45;26.20;99.90
22984;DHT22;11658;48.908;9.140;2023-08-20T20:28:11;26.20;99.90
22984;DHT22;11658;48.908;9.140;2023-08-20T20:30:36;26.10;99.90
22984;DHT22;11658;48.908;9.140;2023-08-20T20:33:02;26.10;99.90
22984;DHT22;11658;48.908;9.140;2023-08-20T20:35:31;26.10;99.90
22984;DHT22;11658;48.908;9.140;2023-08-20T20:37:59;26.00;99.90
22984;DHT22;11658;48.908;9.140;2023-08-20T20:40:25;25.80;99.90
22984;DHT22;11658;48.908;9.140;2023-08-20T20:42:50;25.70;99.90
22984;DHT22;11658;48.908;9.140;2023-08-20T20:45:16;25.70;99.90
22984;DHT22;11658;48.908;9.140;2023-08-20T20:47:42;25.60;99.90